createdAt,value
2018-07-02T00:00:59.393Z,36.82
2018-07-02T00:01:59.333Z,37.10
2018-07-02T00:03:52.458Z,36.82
2018-07-02T00:04:52.432Z,37.30
2018-07-02T00:06:45.472Z,37.59
2018-07-02T00:07:45.388Z,37.18
2018-07-02T00:09:38.382Z,37.20
2018-07-02T00:10:38.353Z,37.18
2018-07-02T00:12:31.341Z,37.01
2018-07-02T00:13:31.301Z,37.18
2018-07-02T00:15:24.477Z,36.60
2018-07-02T00:16:24.422Z,36.90
2018-07-02T00:18:17.565Z,37.08
2018-07-02T00:19:17.534Z,37.08
2018-07-02T00:21:10.526Z,37.37
2018-07-02T00:22:10.487Z,36.90
2018-07-02T00:24:03.496Z,37.47
2018-07-02T00:25:03.422Z,37.08
2018-07-02T00:26:56.437Z,36.80
2018-07-02T00:27:56.380Z,36.99
2018-07-02T00:29:49.364Z,37.18
2018-07-02T00:30:49.326Z,36.60
2018-07-02T00:32:42.337Z,37.18
2018-07-02T00:33:42.288Z,37.08
2018-07-02T00:35:35.275Z,37.57
2018-07-02T00:36:35.241Z,37.66
2018-07-02T00:38:28.082Z,37.18
2018-07-02T00:39:28.017Z,36.99
2018-07-02T00:41:21.018Z,37.76
2018-07-02T00:42:20.978Z,38.04
2018-07-02T00:44:14.147Z,37.57
2018-07-02T00:45:14.079Z,37.85
2018-07-02T00:47:07.099Z,37.66
2018-07-02T00:48:07.033Z,37.66
2018-07-02T00:50:00.003Z,37.76
2018-07-02T00:50:59.970Z,37.76
2018-07-02T00:52:53.022Z,37.37
2018-07-02T00:53:52.973Z,38.14
2018-07-02T00:55:45.938Z,37.66
2018-07-02T00:56:45.914Z,37.66
2018-07-02T00:58:39.047Z,37.27
2018-07-02T00:59:39.007Z,37.85
2018-07-02T01:01:32.008Z,37.57
2018-07-02T01:02:31.975Z,37.47
2018-07-02T01:04:24.974Z,37.76
2018-07-02T01:05:24.918Z,37.57
2018-07-02T01:07:18.053Z,37.76
2018-07-02T01:08:18.023Z,37.85
2018-07-02T01:10:11.011Z,38.04
2018-07-02T01:11:10.971Z,38.53
2018-07-02T01:13:03.977Z,38.62
2018-07-02T01:14:03.898Z,38.89
2018-07-02T01:15:56.748Z,39.08
2018-07-02T01:16:56.691Z,38.99
2018-07-02T01:18:49.578Z,38.70
2018-07-02T01:19:49.479Z,39.28
2018-07-02T01:21:42.313Z,39.37
2018-07-02T01:22:42.268Z,38.89
2018-07-02T01:24:35.245Z,38.79
2018-07-02T01:25:35.238Z,38.99
2018-07-02T01:27:28.408Z,38.79
2018-07-02T01:28:28.285Z,39.28
2018-07-02T01:30:21.254Z,39.66
2018-07-02T01:31:21.224Z,39.85
2018-07-02T01:33:14.219Z,39.95
2018-07-02T01:34:14.171Z,40.14
2018-07-02T01:36:07.009Z,40.43
2018-07-02T01:37:06.959Z,40.23
2018-07-02T01:38:59.929Z,40.22
2018-07-02T01:39:59.901Z,40.50
2018-07-02T01:41:52.900Z,40.31
2018-07-02T01:42:52.849Z,40.50
2018-07-02T01:44:45.960Z,40.50
2018-07-02T01:45:45.928Z,40.70
2018-07-02T01:47:38.925Z,40.79
2018-07-02T01:48:38.865Z,40.60
2018-07-02T01:50:31.840Z,41.46
2018-07-02T01:51:31.815Z,41.46
2018-07-02T01:53:24.958Z,41.66
2018-07-02T01:54:24.913Z,40.79
2018-07-02T01:56:17.899Z,40.70
2018-07-02T01:57:17.879Z,41.08
2018-07-02T01:59:11.069Z,41.17
2018-07-02T02:00:11.034Z,41.37
2018-07-02T02:02:03.869Z,41.44
2018-07-02T02:03:03.809Z,41.37
2018-07-02T02:04:56.809Z,41.66
2018-07-02T02:05:56.759Z,41.35
2018-07-02T02:07:49.756Z,42.02
2018-07-02T02:08:49.690Z,42.60
2018-07-02T02:10:42.705Z,42.69
2018-07-02T02:11:42.645Z,42.50
2018-07-02T02:13:35.641Z,42.69
2018-07-02T02:14:35.600Z,42.60
2018-07-02T02:16:28.781Z,42.50
2018-07-02T02:17:28.716Z,42.88
2018-07-02T02:19:21.691Z,42.50
2018-07-02T02:20:21.660Z,42.50
2018-07-02T02:22:14.661Z,42.88
2018-07-02T02:23:14.599Z,42.69
2018-07-02T02:25:07.791Z,43.17
2018-07-02T02:26:07.668Z,43.17
2018-07-02T02:28:00.648Z,42.88
2018-07-02T02:29:00.618Z,43.07
2018-07-02T02:30:53.603Z,42.60
2018-07-02T02:31:53.562Z,43.73
2018-07-02T02:33:46.395Z,44.97
2018-07-02T02:34:46.342Z,45.83
2018-07-02T02:36:39.184Z,46.79
2018-07-02T02:37:39.136Z,46.60
2018-07-02T02:39:32.143Z,46.79
2018-07-02T02:40:32.079Z,46.79
2018-07-02T02:42:25.071Z,46.77
2018-07-02T02:43:25.036Z,46.96
2018-07-02T02:45:17.919Z,47.25
2018-07-02T02:46:17.870Z,47.25
2018-07-02T02:48:10.851Z,47.15
2018-07-02T02:49:10.818Z,47.53
2018-07-02T02:51:03.741Z,47.44
2018-07-02T02:52:03.583Z,48.11
2018-07-02T02:53:56.571Z,47.73
2018-07-02T02:54:56.532Z,47.63
2018-07-02T02:56:49.621Z,48.02
2018-07-02T02:57:49.526Z,48.11
2018-07-02T02:59:42.537Z,48.49
2018-07-02T03:00:42.463Z,48.30
2018-07-02T03:02:35.451Z,47.89
2018-07-02T03:03:35.401Z,48.18
2018-07-02T03:05:28.256Z,48.57
2018-07-02T03:06:28.212Z,48.69
2018-07-02T03:08:21.239Z,49.24
2018-07-02T03:09:21.189Z,49.36
2018-07-02T03:11:14.177Z,49.81
2018-07-02T03:12:14.157Z,50.58
2018-07-02T03:14:07.398Z,50.10
2018-07-02T03:15:07.368Z,50.29
2018-07-02T03:17:00.368Z,50.38
2018-07-02T03:18:00.343Z,50.67
2018-07-02T03:19:53.567Z,50.87
2018-07-02T03:20:53.374Z,51.06
2018-07-02T03:22:46.200Z,51.63
2018-07-02T03:23:46.152Z,51.54
2018-07-02T03:25:39.150Z,52.01
2018-07-02T03:26:39.127Z,52.01
2018-07-02T03:28:32.357Z,51.42
2018-07-02T03:29:32.233Z,52.18
2018-07-02T03:31:25.068Z,52.18
2018-07-02T03:32:25.014Z,52.47
2018-07-02T03:34:17.979Z,52.66
2018-07-02T03:35:17.969Z,52.75
2018-07-02T03:37:11.230Z,52.95
2018-07-02T03:38:11.050Z,53.30
2018-07-02T03:40:04.027Z,53.49
2018-07-02T03:41:03.988Z,53.40
2018-07-02T03:42:56.983Z,53.69
2018-07-02T03:43:56.938Z,54.26
2018-07-02T03:45:50.063Z,53.97
2018-07-02T03:46:50.019Z,54.26
2018-07-02T03:48:43.023Z,54.55
2018-07-02T03:49:42.957Z,54.16
2018-07-02T03:51:35.940Z,55.22
2018-07-02T03:52:35.910Z,55.31
2018-07-02T03:54:28.976Z,55.22
2018-07-02T03:55:28.908Z,55.41
2018-07-02T03:57:21.870Z,55.12
2018-07-02T03:58:21.846Z,55.22
2018-07-02T04:00:14.819Z,55.69
2018-07-02T04:01:14.814Z,56.37
2018-07-02T04:03:07.721Z,56.27
2018-07-02T04:04:07.586Z,56.56
2018-07-02T04:06:00.573Z,55.51
2018-07-02T04:07:00.536Z,55.31
2018-07-02T04:08:53.511Z,55.79
2018-07-02T04:09:53.464Z,56.17
2018-07-02T04:11:46.611Z,56.37
2018-07-02T04:12:46.545Z,56.37
2018-07-02T04:14:39.387Z,56.94
2018-07-02T04:15:39.336Z,56.75
2018-07-02T04:17:32.364Z,58.09
2018-07-02T04:18:32.344Z,58.47
2018-07-02T04:20:25.496Z,58.86
2018-07-02T04:21:25.434Z,58.95
2018-07-02T04:23:18.432Z,58.56
2018-07-02T04:24:18.406Z,58.86
2018-07-02T04:26:11.244Z,58.47
2018-07-02T04:27:11.186Z,58.47
2018-07-02T04:29:04.371Z,58.86
2018-07-02T04:30:04.278Z,59.14
2018-07-02T04:31:57.260Z,59.14
2018-07-02T04:32:57.210Z,58.95
2018-07-02T04:34:50.022Z,58.95
2018-07-02T04:35:49.990Z,59.33
2018-07-02T04:37:43.202Z,59.23
2018-07-02T04:38:43.076Z,59.14
2018-07-02T04:40:36.062Z,59.91
2018-07-02T04:41:36.002Z,59.81
2018-07-02T04:43:29.010Z,59.81
2018-07-02T04:44:28.955Z,60.48
2018-07-02T04:46:21.775Z,59.91
2018-07-02T04:47:21.740Z,59.91
2018-07-02T04:49:14.750Z,60.00
2018-07-02T04:50:14.696Z,59.81
2018-07-02T04:52:07.710Z,59.62
2018-07-02T04:53:07.639Z,59.65
2018-07-02T04:55:00.801Z,60.03
2018-07-02T04:56:00.758Z,60.61
2018-07-02T04:57:53.757Z,60.70
2018-07-02T04:58:53.714Z,60.32
2018-07-02T05:00:46.685Z,58.59
2018-07-02T05:01:46.651Z,58.59
2018-07-02T05:03:39.811Z,58.40
2018-07-02T05:04:39.746Z,58.79
2018-07-02T05:06:32.724Z,57.28
2018-07-02T05:07:32.740Z,57.28
2018-07-02T05:09:25.671Z,56.90
2018-07-02T05:10:25.633Z,56.81
2018-07-02T05:12:18.501Z,56.81
2018-07-02T05:13:18.436Z,56.71
2018-07-02T05:15:11.438Z,56.52
2018-07-02T05:16:11.368Z,56.61
2018-07-02T05:18:04.209Z,56.74
2018-07-02T05:19:04.150Z,55.85
2018-07-02T05:20:57.149Z,55.30
2018-07-02T05:21:57.100Z,55.21
2018-07-02T05:23:49.941Z,54.63
2018-07-02T05:24:49.898Z,54.44
2018-07-02T05:26:42.860Z,54.91
2018-07-02T05:27:42.828Z,54.34
2018-07-02T05:29:35.818Z,54.05
2018-07-02T05:30:35.778Z,52.93
2018-07-02T05:32:28.928Z,52.93
2018-07-02T05:33:28.839Z,53.79
2018-07-02T05:35:21.833Z,51.59
2018-07-02T05:36:21.798Z,52.36
2018-07-02T05:38:14.768Z,52.16
2018-07-02T05:39:14.728Z,51.59
2018-07-02T05:41:07.652Z,51.97
2018-07-02T05:42:07.613Z,51.78
2018-07-02T05:44:00.657Z,51.04
2018-07-02T05:45:00.598Z,51.59
2018-07-02T05:46:53.578Z,51.71
2018-07-02T05:47:53.532Z,51.61
2018-07-02T05:49:46.718Z,50.65
2018-07-02T05:50:46.644Z,50.65
2018-07-02T05:52:39.623Z,50.94
2018-07-02T05:53:39.583Z,51.14
2018-07-02T05:55:32.586Z,49.98
2018-07-02T05:56:32.512Z,50.17
2018-07-02T05:58:25.344Z,49.12
2018-07-02T05:59:25.322Z,49.15
2018-07-02T06:01:18.163Z,48.64
2018-07-02T06:02:18.104Z,49.05
2018-07-02T06:04:11.098Z,48.76
2018-07-02T06:05:11.055Z,49.05
2018-07-02T06:07:04.049Z,48.76
2018-07-02T06:08:04.269Z,48.18
2018-07-02T06:09:57.029Z,48.76
2018-07-02T06:10:56.969Z,48.76
2018-07-02T06:12:49.957Z,49.74
2018-07-02T06:13:49.914Z,49.24
2018-07-02T06:15:42.910Z,48.59
2018-07-02T06:16:42.863Z,48.40
2018-07-02T06:18:35.750Z,48.11
2018-07-02T06:19:35.688Z,48.02
2018-07-02T06:21:28.535Z,48.11
2018-07-02T06:22:28.464Z,47.82
2018-07-02T06:24:21.441Z,47.63
2018-07-02T06:25:21.411Z,46.96
2018-07-02T06:27:14.419Z,46.69
2018-07-02T06:28:14.374Z,46.89
2018-07-02T06:30:07.179Z,47.08
2018-07-02T06:31:07.155Z,46.89
2018-07-02T06:33:00.141Z,45.92
2018-07-02T06:34:00.110Z,45.54
2018-07-02T06:35:53.094Z,45.64
2018-07-02T06:36:53.026Z,45.15
2018-07-02T06:38:46.164Z,44.77
2018-07-02T06:39:46.131Z,44.77
2018-07-02T06:41:38.919Z,45.18
2018-07-02T06:42:38.901Z,45.18
2018-07-02T06:44:31.736Z,45.18
2018-07-02T06:45:31.688Z,44.89
2018-07-02T06:47:24.694Z,45.47
2018-07-02T06:48:24.640Z,45.85
2018-07-02T06:50:17.447Z,46.14
2018-07-02T06:51:17.409Z,46.43
2018-07-02T06:53:10.411Z,46.04
2018-07-02T06:54:10.359Z,45.28
2018-07-02T06:56:03.370Z,46.53
2018-07-02T06:57:03.341Z,44.12
2018-07-02T06:58:56.570Z,44.91
2018-07-02T06:59:56.496Z,44.51
2018-07-02T07:01:49.320Z,44.34
2018-07-02T07:02:49.281Z,44.05
2018-07-02T07:04:42.295Z,43.47
2018-07-02T07:05:42.235Z,44.24
2018-07-02T07:07:35.046Z,43.66
2018-07-02T07:08:35.029Z,44.43
2018-07-02T07:10:28.072Z,43.57
2018-07-02T07:11:27.961Z,44.24
2018-07-02T07:13:20.960Z,44.24
2018-07-02T07:14:20.919Z,42.70
2018-07-02T07:16:13.922Z,42.91
2018-07-02T07:17:13.866Z,43.49
2018-07-02T07:19:06.916Z,42.53
2018-07-02T07:20:06.898Z,43.01
2018-07-02T07:21:59.897Z,43.20
2018-07-02T07:22:59.930Z,43.88
2018-07-02T07:24:52.967Z,43.40
2018-07-02T07:25:52.932Z,42.91
2018-07-02T07:27:45.736Z,42.65
2018-07-02T07:28:45.701Z,42.65
2018-07-02T07:30:38.726Z,42.74
2018-07-02T07:31:38.666Z,42.65
2018-07-02T07:33:31.482Z,43.13
2018-07-02T07:34:31.469Z,42.74
2018-07-02T07:36:24.630Z,42.65
2018-07-02T07:37:24.590Z,42.65
2018-07-02T07:39:17.527Z,41.49
2018-07-02T07:40:17.487Z,42.07
2018-07-02T07:42:10.526Z,42.19
2018-07-02T07:43:10.481Z,41.61
2018-07-02T07:45:03.478Z,41.20
2018-07-02T07:46:03.446Z,41.71
2018-07-02T07:47:56.462Z,42.09
2018-07-02T07:48:56.512Z,41.22
2018-07-02T07:50:49.248Z,40.36
2018-07-02T07:51:49.198Z,40.36
2018-07-02T07:53:42.068Z,40.36
2018-07-02T07:54:42.026Z,40.36
2018-07-02T07:56:35.029Z,40.16
2018-07-02T07:57:34.977Z,40.16
2018-07-02T07:59:27.994Z,40.28
2018-07-02T08:00:27.925Z,40.47
2018-07-02T08:02:21.145Z,40.19
2018-07-02T08:03:21.008Z,40.86
2018-07-02T08:05:14.042Z,40.09
2018-07-02T08:06:13.988Z,39.61
2018-07-02T08:08:06.989Z,40.09
2018-07-02T08:09:06.922Z,39.61
2018-07-02T08:10:59.957Z,39.53
2018-07-02T08:11:59.853Z,40.20
2018-07-02T08:13:52.843Z,40.20
2018-07-02T08:14:52.801Z,39.62
2018-07-02T08:16:45.822Z,39.82
2018-07-02T08:17:45.757Z,40.59
2018-07-02T08:19:38.897Z,40.30
2018-07-02T08:20:38.893Z,40.30
2018-07-02T08:22:31.862Z,40.42
2018-07-02T08:23:31.822Z,40.22
2018-07-02T08:25:24.912Z,39.94
2018-07-02T08:26:24.888Z,39.06
2018-07-02T08:28:17.891Z,38.87
2018-07-02T08:29:17.843Z,39.74
2018-07-02T08:31:10.819Z,39.74
2018-07-02T08:32:10.791Z,39.74
2018-07-02T08:34:04.009Z,39.94
2018-07-02T08:35:03.888Z,40.12
2018-07-02T08:36:56.918Z,40.03
2018-07-02T08:37:56.895Z,40.05
2018-07-02T08:39:49.882Z,39.57
2018-07-02T08:40:49.839Z,40.44
2018-07-02T08:42:42.669Z,38.31
2018-07-02T08:43:42.624Z,37.45
2018-07-02T08:45:35.619Z,38.31
2018-07-02T08:46:35.569Z,39.76
2018-07-02T08:48:28.568Z,38.99
2018-07-02T08:49:28.533Z,39.76
2018-07-02T08:51:21.659Z,37.85
2018-07-02T08:52:21.599Z,38.62
2018-07-02T08:54:14.653Z,38.91
2018-07-02T08:55:14.600Z,38.81
2018-07-02T08:57:07.734Z,39.01
2018-07-02T08:58:07.670Z,37.56
2018-07-02T09:00:00.678Z,36.03
2018-07-02T09:01:00.641Z,36.79
2018-07-02T09:02:53.680Z,38.06
2018-07-02T09:03:53.660Z,37.67
2018-07-02T09:05:46.503Z,37.87
2018-07-02T09:06:46.500Z,37.96
2018-07-02T09:08:39.424Z,37.38
2018-07-02T09:09:39.387Z,38.06
2018-07-02T09:11:32.413Z,37.38
2018-07-02T09:12:32.356Z,38.06
2018-07-02T09:14:25.563Z,37.60
2018-07-02T09:15:25.444Z,37.50
2018-07-02T09:17:18.467Z,37.40
2018-07-02T09:18:18.389Z,37.02
2018-07-02T09:20:11.390Z,35.95
2018-07-02T09:21:11.333Z,36.92
2018-07-02T09:23:04.514Z,35.49
2018-07-02T09:24:04.489Z,37.13
2018-07-02T09:25:57.534Z,36.65
2018-07-02T09:26:57.496Z,36.07
2018-07-02T09:28:50.611Z,36.84
2018-07-02T09:29:50.632Z,36.84
2018-07-02T09:31:43.411Z,36.96
2018-07-02T09:32:43.388Z,36.18
2018-07-02T09:34:36.339Z,36.86
2018-07-02T09:35:36.327Z,35.02
2018-07-02T09:37:29.579Z,34.42
2018-07-02T09:38:29.430Z,34.42
2018-07-02T09:40:22.407Z,35.99
2018-07-02T09:41:22.374Z,35.80
2018-07-02T09:43:15.374Z,35.80
2018-07-02T09:44:15.330Z,35.60
2018-07-02T09:46:08.233Z,34.36
2018-07-02T09:47:08.190Z,34.94
2018-07-02T09:49:01.161Z,34.36
2018-07-02T09:50:01.132Z,34.94
2018-07-02T09:51:54.150Z,33.22
2018-07-02T09:52:54.095Z,34.28
2018-07-02T09:54:47.236Z,33.02
2018-07-02T09:55:47.210Z,34.77
2018-07-02T09:57:40.272Z,34.57
2018-07-02T09:58:40.145Z,34.19
2018-07-02T10:00:33.186Z,34.59
2018-07-02T10:01:33.104Z,34.70
2018-07-02T10:03:26.183Z,34.12
2018-07-02T10:04:26.140Z,33.44
2018-07-02T10:06:19.335Z,32.10
2018-07-02T10:07:19.222Z,31.32
2018-07-02T10:09:11.962Z,28.45
2018-07-02T10:10:11.950Z,27.19
2018-07-02T10:12:04.826Z,26.71
2018-07-02T10:13:04.775Z,26.89
2018-07-02T10:14:57.780Z,26.64
2018-07-02T10:15:57.736Z,26.08
2018-07-02T10:17:50.739Z,24.37
2018-07-02T10:18:50.688Z,24.08
2018-07-02T10:20:43.891Z,21.86
2018-07-02T10:21:43.870Z,21.18
2018-07-02T10:23:37.499Z,20.51
2018-07-02T10:24:36.842Z,19.56
2018-07-02T10:26:29.677Z,18.89
2018-07-02T10:27:29.652Z,19.57
2018-07-02T10:29:22.647Z,19.51
2018-07-02T10:30:22.509Z,18.13
2018-07-02T10:32:15.556Z,17.07
2018-07-02T10:33:15.501Z,17.14
2018-07-02T10:35:08.505Z,18.02
2018-07-02T10:36:08.468Z,17.25
2018-07-02T10:38:01.566Z,18.17
2018-07-02T10:39:01.544Z,17.69
2018-07-02T10:40:54.538Z,14.53
2018-07-02T10:41:54.516Z,15.42
2018-07-02T10:43:47.742Z,15.15
2018-07-02T10:44:47.617Z,15.25
2018-07-02T10:46:40.629Z,14.13
2018-07-02T10:47:40.616Z,16.08
2018-07-02T10:49:33.626Z,16.10
2018-07-02T10:50:33.593Z,17.19
2018-07-02T10:52:26.636Z,15.63
2018-07-02T10:53:26.617Z,15.64
2018-07-02T10:55:19.620Z,13.78
2018-07-02T10:56:19.589Z,13.97
2018-07-02T10:58:12.856Z,17.52
2018-07-02T10:59:12.789Z,16.54
2018-07-02T11:01:05.658Z,17.66
2018-07-02T11:02:05.631Z,15.70
2018-07-02T11:03:58.475Z,15.80
2018-07-02T11:04:58.456Z,16.01
2018-07-02T11:06:51.758Z,16.73
2018-07-02T11:07:51.594Z,15.75
2018-07-02T11:09:44.607Z,13.10
2018-07-02T11:10:44.571Z,14.00
2018-07-02T11:12:37.565Z,14.79
2018-07-02T11:13:37.546Z,14.11
2018-07-02T11:15:30.589Z,13.40
2018-07-02T11:16:30.562Z,15.28
2018-07-02T11:18:23.576Z,13.42
2018-07-02T11:19:23.549Z,12.73
2018-07-02T11:21:16.418Z,13.13
2018-07-02T11:22:16.390Z,12.64
2018-07-02T11:24:09.247Z,13.13
2018-07-02T11:25:09.212Z,12.25
2018-07-02T11:27:02.243Z,12.83
2018-07-02T11:28:02.211Z,12.94
2018-07-02T11:29:55.215Z,11.16
2018-07-02T11:30:55.203Z,12.84
2018-07-02T11:32:48.099Z,12.26
2018-07-02T11:33:48.074Z,10.88
2018-07-02T11:35:41.091Z,11.17
2018-07-02T11:36:41.062Z,12.86
2018-07-02T11:38:34.078Z,12.28
2018-07-02T11:39:34.048Z,11.19
2018-07-02T11:41:26.930Z,10.50
2018-07-02T11:42:26.899Z,9.21
2018-07-02T11:44:19.919Z,10.49
2018-07-02T11:45:19.884Z,10.16
2018-07-02T11:47:12.920Z,10.86
2018-07-02T11:48:12.874Z,10.47
2018-07-02T11:50:05.725Z,10.65
2018-07-02T11:51:05.706Z,11.64
2018-07-02T11:52:58.730Z,12.88
2018-07-02T11:53:58.697Z,13.10
2018-07-02T11:55:51.693Z,13.12
2018-07-02T11:56:51.676Z,12.74
2018-07-02T11:58:44.899Z,12.15
2018-07-02T11:59:44.871Z,12.34
2018-07-02T12:01:38.095Z,11.27
2018-07-02T12:02:38.081Z,10.27
2018-07-02T12:04:31.099Z,12.60
2018-07-02T12:05:31.072Z,12.81
2018-07-02T12:07:24.137Z,13.81
2018-07-02T12:08:24.082Z,13.13
2018-07-02T12:10:17.245Z,12.35
2018-07-02T12:11:17.201Z,10.86
2018-07-02T12:13:10.211Z,11.56
2018-07-02T12:14:10.175Z,12.37
2018-07-02T12:16:03.221Z,11.18
2018-07-02T12:17:03.175Z,10.50
2018-07-02T12:18:56.185Z,9.79
2018-07-02T12:19:56.161Z,10.36
2018-07-02T12:21:49.008Z,13.40
2018-07-02T12:22:48.988Z,12.93
2018-07-02T12:24:42.024Z,12.16
2018-07-02T12:25:41.987Z,10.48
2018-07-02T12:27:34.827Z,10.39
2018-07-02T12:28:34.807Z,10.68
2018-07-02T12:30:27.825Z,11.77
2018-07-02T12:31:27.795Z,10.98
2018-07-02T12:33:21.129Z,9.19
2018-07-02T12:34:21.077Z,9.19
2018-07-02T12:36:14.098Z,10.46
2018-07-02T12:37:14.056Z,10.75
2018-07-02T12:39:07.093Z,11.61
2018-07-02T12:40:07.071Z,12.12
2018-07-02T12:42:00.015Z,10.75
2018-07-02T12:42:59.982Z,11.61
2018-07-02T12:44:53.020Z,13.42
2018-07-02T12:45:52.987Z,12.84
2018-07-02T12:47:45.827Z,10.96
2018-07-02T12:48:45.803Z,11.25
2018-07-02T12:50:38.986Z,11.06
2018-07-02T12:51:38.952Z,10.96
2018-07-02T12:53:31.938Z,11.56
2018-07-02T12:54:31.937Z,10.68
2018-07-02T12:56:25.084Z,10.28
2018-07-02T12:57:25.042Z,11.57
2018-07-02T12:59:18.027Z,12.74
2018-07-02T13:00:18.020Z,12.16
2018-07-02T13:02:11.053Z,10.08
2018-07-02T13:03:10.997Z,10.08
2018-07-02T13:05:04.017Z,10.47
2018-07-02T13:06:03.994Z,10.36
2018-07-02T13:07:57.028Z,11.24
2018-07-02T13:08:57.096Z,10.93
2018-07-02T13:10:50.317Z,13.51
2018-07-02T13:11:50.124Z,12.24
2018-07-02T13:13:43.107Z,11.15
2018-07-02T13:14:43.107Z,13.23
2018-07-02T13:16:36.115Z,11.25
2018-07-02T13:17:36.092Z,10.77
2018-07-02T13:19:29.076Z,12.84
2018-07-02T13:20:28.942Z,11.56
2018-07-02T13:22:21.971Z,9.99
2018-07-02T13:23:21.932Z,9.70
2018-07-02T13:25:14.962Z,10.10
2018-07-02T13:26:14.955Z,11.09
2018-07-02T13:28:08.007Z,12.44
2018-07-02T13:29:07.981Z,12.75
2018-07-02T13:31:00.828Z,10.99
2018-07-02T13:32:00.814Z,12.08
2018-07-02T13:33:53.836Z,8.51
2018-07-02T13:34:53.800Z,9.31
2018-07-02T13:36:46.666Z,10.10
2018-07-02T13:37:46.658Z,9.67
2018-07-02T13:39:39.647Z,11.04
2018-07-02T13:40:39.619Z,10.53
2018-07-02T13:42:32.646Z,11.02
2018-07-02T13:43:32.614Z,11.70
2018-07-02T13:45:25.709Z,11.51
2018-07-02T13:46:25.684Z,11.70
2018-07-02T13:48:18.684Z,11.70
2018-07-02T13:49:18.659Z,12.48
2018-07-02T13:51:11.542Z,12.70
2018-07-02T13:52:11.494Z,11.23
2018-07-02T13:54:04.358Z,12.63
2018-07-02T13:55:04.324Z,12.34
2018-07-02T13:56:57.168Z,9.67
2018-07-02T13:57:57.142Z,9.27
2018-07-02T13:59:50.204Z,10.14
2018-07-02T14:00:50.135Z,10.25
2018-07-02T14:02:43.395Z,11.16
2018-07-02T14:03:43.269Z,10.07
2018-07-02T14:05:36.289Z,8.89
2018-07-02T14:06:36.263Z,9.69
2018-07-02T14:08:29.275Z,8.70
2018-07-02T14:09:29.238Z,10.08
2018-07-02T14:11:22.089Z,8.20
2018-07-02T14:12:22.084Z,7.89
2018-07-02T14:14:15.112Z,10.23
2018-07-02T14:15:15.050Z,10.24
2018-07-02T14:17:08.065Z,10.53
2018-07-02T14:18:08.044Z,10.64
2018-07-02T14:20:00.983Z,9.26
2018-07-02T14:21:00.872Z,9.75
2018-07-02T14:22:53.889Z,10.34
2018-07-02T14:23:53.864Z,9.85
2018-07-02T14:25:46.892Z,11.22
2018-07-02T14:26:46.880Z,12.12
2018-07-02T14:28:40.000Z,10.05
2018-07-02T14:29:39.961Z,10.05
2018-07-02T14:31:32.942Z,11.84
2018-07-02T14:32:32.924Z,10.27
2018-07-02T14:34:26.158Z,8.67
2018-07-02T14:35:26.031Z,9.17
2018-07-02T14:37:19.025Z,9.07
2018-07-02T14:38:19.006Z,9.56
2018-07-02T14:40:12.020Z,8.68
2018-07-02T14:41:11.981Z,8.48
2018-07-02T14:43:04.975Z,10.05
2018-07-02T14:44:04.944Z,10.85
2018-07-02T14:45:57.956Z,9.26
2018-07-02T14:46:57.920Z,9.86
2018-07-02T14:48:50.954Z,9.94
2018-07-02T14:49:50.913Z,10.14
2018-07-02T14:51:43.769Z,9.85
2018-07-02T14:52:43.742Z,10.55
2018-07-02T14:54:36.577Z,9.77
2018-07-02T14:55:36.551Z,10.16
2018-07-02T14:57:29.604Z,10.05
2018-07-02T14:58:29.611Z,10.33
2018-07-02T15:00:22.778Z,11.21
2018-07-02T15:01:22.683Z,11.22
2018-07-02T15:03:15.688Z,11.13
2018-07-02T15:04:15.666Z,10.35
2018-07-02T15:06:08.685Z,9.66
2018-07-02T15:07:08.666Z,10.95
2018-07-02T15:09:01.662Z,11.35
2018-07-02T15:10:01.630Z,10.27
2018-07-02T15:11:54.492Z,10.85
2018-07-02T15:12:54.457Z,11.05
2018-07-02T15:14:47.488Z,10.86
2018-07-02T15:15:47.460Z,10.08
2018-07-02T15:17:40.546Z,10.28
2018-07-02T15:18:40.510Z,10.18
2018-07-02T15:20:33.521Z,8.71
2018-07-02T15:21:33.482Z,9.00
2018-07-02T15:23:26.673Z,9.00
2018-07-02T15:24:26.616Z,8.89
2018-07-02T15:26:19.676Z,10.58
2018-07-02T15:27:19.652Z,10.38
2018-07-02T15:29:12.716Z,9.11
2018-07-02T15:30:12.636Z,8.91
2018-07-02T15:32:05.521Z,8.91
2018-07-02T15:33:05.462Z,10.30
2018-07-02T15:34:59.457Z,9.37
2018-07-02T15:35:59.422Z,10.26
2018-07-02T15:37:52.431Z,10.47
2018-07-02T15:38:52.422Z,9.38
2018-07-02T15:40:45.402Z,10.06
2018-07-02T15:41:45.420Z,10.44
2018-07-02T15:43:38.378Z,10.92
2018-07-02T15:44:38.346Z,10.74
2018-07-02T15:46:31.494Z,10.95
2018-07-02T15:47:31.470Z,10.36
2018-07-02T15:49:24.472Z,10.18
2018-07-02T15:50:24.442Z,9.58
2018-07-02T15:52:17.427Z,8.70
2018-07-02T15:53:17.395Z,8.89
2018-07-02T15:55:10.272Z,9.67
2018-07-02T15:56:10.237Z,9.28
2018-07-02T15:58:03.223Z,9.78
2018-07-02T15:59:03.197Z,8.70
2018-07-02T16:00:56.206Z,9.78
2018-07-02T16:01:56.167Z,10.28
2018-07-02T16:03:49.326Z,9.29
2018-07-02T16:04:49.267Z,10.05
2018-07-02T16:06:42.133Z,10.84
2018-07-02T16:07:42.088Z,10.93
2018-07-02T16:09:35.117Z,11.13
2018-07-02T16:10:35.146Z,11.44
2018-07-02T16:12:27.949Z,10.25
2018-07-02T16:13:27.921Z,10.83
2018-07-02T16:15:20.935Z,10.94
2018-07-02T16:16:20.918Z,11.02
2018-07-02T16:18:13.882Z,11.63
2018-07-02T16:19:13.874Z,11.24
2018-07-02T16:21:06.737Z,11.43
2018-07-02T16:22:06.682Z,11.33
2018-07-02T16:23:59.699Z,12.00
2018-07-02T16:24:59.670Z,12.10
2018-07-02T16:26:52.569Z,13.45
2018-07-02T16:27:52.488Z,13.16
2018-07-02T16:29:45.470Z,13.64
2018-07-02T16:30:45.458Z,13.75
2018-07-02T16:32:38.468Z,13.07
2018-07-02T16:33:38.310Z,13.26
2018-07-02T16:35:31.314Z,13.35
2018-07-02T16:36:31.310Z,13.85
2018-07-02T16:38:24.298Z,13.54
2018-07-02T16:39:24.271Z,13.25
2018-07-02T16:41:17.168Z,13.06
2018-07-02T16:42:17.146Z,13.43
2018-07-02T16:44:10.138Z,13.34
2018-07-02T16:45:10.123Z,13.63
2018-07-02T16:47:03.097Z,13.73
2018-07-02T16:48:03.125Z,14.03
2018-07-02T16:49:56.275Z,14.23
2018-07-02T16:50:56.174Z,14.80
2018-07-02T16:52:49.175Z,14.90
2018-07-02T16:53:49.150Z,14.80
2018-07-02T16:55:42.129Z,14.51
2018-07-02T16:56:42.107Z,14.90
2018-07-02T16:58:35.136Z,14.32
2018-07-02T16:59:35.081Z,14.70
2018-07-02T17:01:28.047Z,14.89
2018-07-02T17:02:28.040Z,14.01
2018-07-02T17:04:21.042Z,14.12
2018-07-02T17:05:21.005Z,14.12
2018-07-02T17:07:13.997Z,14.90
2018-07-02T17:08:13.964Z,14.22
2018-07-02T17:10:06.960Z,14.01
2018-07-02T17:11:07.005Z,14.51
2018-07-02T17:12:59.756Z,14.32
2018-07-02T17:13:59.731Z,14.23
2018-07-02T17:15:52.592Z,14.04
2018-07-02T17:16:52.551Z,14.83
2018-07-02T17:18:45.451Z,13.35
2018-07-02T17:19:45.357Z,14.23
2018-07-02T17:21:38.371Z,15.28
2018-07-02T17:22:38.370Z,15.08
2018-07-02T17:24:31.686Z,15.55
2018-07-02T17:25:31.649Z,15.55
2018-07-02T17:27:24.500Z,15.94
2018-07-02T17:28:24.488Z,16.52
2018-07-02T17:30:17.479Z,15.74
2018-07-02T17:31:17.422Z,16.71
2018-07-02T17:33:10.281Z,16.60
2018-07-02T17:34:10.240Z,16.89
2018-07-02T17:36:03.217Z,18.26
2018-07-02T17:37:03.206Z,17.20
2018-07-02T17:38:56.207Z,16.22
2018-07-02T17:39:56.228Z,15.64
2018-07-02T17:41:48.996Z,15.83
2018-07-02T17:42:48.970Z,16.41
2018-07-02T17:44:41.844Z,16.71
2018-07-02T17:45:41.787Z,16.71
2018-07-02T17:47:34.641Z,17.19
2018-07-02T17:48:34.600Z,17.58
2018-07-02T17:50:27.592Z,17.19
2018-07-02T17:51:27.551Z,17.10
2018-07-02T17:53:20.530Z,16.71
2018-07-02T17:54:20.507Z,16.70
2018-07-02T17:56:13.516Z,17.19
2018-07-02T17:57:13.466Z,18.46
2018-07-02T17:59:06.453Z,18.07
2018-07-02T18:00:06.437Z,18.26
2018-07-02T18:01:59.723Z,18.92
2018-07-02T18:02:59.585Z,19.31
2018-07-02T18:04:52.543Z,19.49
2018-07-02T18:05:52.522Z,20.66
2018-07-02T18:07:45.511Z,20.47
2018-07-02T18:08:45.467Z,20.67
2018-07-02T18:10:38.393Z,20.86
2018-07-02T18:11:38.330Z,21.06
2018-07-02T18:13:31.297Z,20.76
2018-07-02T18:14:31.281Z,21.62
2018-07-02T18:16:24.275Z,22.12
2018-07-02T18:17:24.224Z,21.72
2018-07-02T18:19:17.391Z,22.10
2018-07-02T18:20:17.367Z,22.30
2018-07-02T18:22:10.436Z,22.49
2018-07-02T18:23:10.373Z,22.49
2018-07-02T18:25:03.348Z,23.46
2018-07-02T18:26:03.312Z,23.84
2018-07-02T18:27:56.312Z,23.84
2018-07-02T18:28:56.283Z,23.94
2018-07-02T18:30:49.269Z,23.84
2018-07-02T18:31:49.221Z,23.63
2018-07-02T18:33:42.316Z,23.84
2018-07-02T18:34:42.287Z,24.43
2018-07-02T18:36:35.329Z,24.51